Time;durP1;ratioP1;P1;durP2;ratioP2;P2;SDS_P1;SDS_P2;PMS_P1;PMS_P2;Temp;Humidity;BMP_temperature;BMP_pressure;BME280_temperature;BME280_humidity;BME280_pressure;Samples;Min_cycle;Max_cycle;Signal;HPM_P1;HPM_P2
2022/12/18 00:01:34;;;;;;;;;;;;;;;;;;5007762;28;19918;-85
2022/12/18 00:03:59;;;;;;;;;;;;;;;;;;5005422;28;19914;-82
2022/12/18 00:06:25;;;;;;;;;;;;;;;;;;4992645;28;19921;-84
2022/12/18 00:08:50;;;;;;;;;;;;;;;;;;5006458;28;19921;-82
2022/12/18 00:11:16;;;;;;;;;;;;;;;;;;5006853;28;19924;-81
2022/12/18 00:13:41;;;;;;;;;;;;;;;;;;5005889;28;19914;-81
2022/12/18 00:16:07;;;;;;;;;;;;;;;;;;5006777;28;19936;-82
2022/12/18 00:18:32;;;;;;;;;;;;;;;;;;5004482;28;19918;-81
2022/12/18 00:20:58;;;;;;;;;;;;;;;;;;5004982;28;19918;-84
2022/12/18 00:23:23;;;;;;;;;;;;;;;;;;5004475;28;19918;-81
2022/12/18 00:25:49;;;;;;;;;;;;;;;;;;5003632;28;19921;-81
2022/12/18 00:28:14;;;;;;;;;;;;;;;;;;5005038;28;19972;-82
2022/12/18 00:30:39;;;;;;;;;;;;;;;;;;5004975;28;20392;-84
2022/12/18 00:33:05;;;;;;;;;;;;;;;;;;5004115;28;19913;-81
2022/12/18 00:35:31;;;;;;;;;;;;;;;;;;5005432;28;19940;-82
2022/12/18 00:37:56;;;;;;;;;;;;;;;;;;5003532;28;20281;-83
2022/12/18 00:40:22;;;;;;;;;;;;;;;;;;4985462;28;19985;-83
2022/12/18 00:42:57;;;;;;;;;;;;;;;;;;5001100;28;19909;-82
2022/12/18 00:45:25;;;;;;;;;;;;;;;;;;4985220;28;19932;-84
2022/12/18 00:47:51;;;;;;;;;;;;;;;;;;4969750;28;19917;-84
2022/12/18 00:50:16;;;;;;;;;;;;;;;;;;4985741;28;19918;-83
2022/12/18 00:52:42;;;;;;;;;;;;;;;;;;5002086;28;19921;-83
2022/12/18 00:55:07;;;;;;;;;;;;;;;;;;5001422;28;19914;-83
2022/12/18 00:57:33;;;;;;;;;;;;;;;;;;5002019;28;19914;-84
2022/12/18 00:59:58;;;;;;;;;;;;;;;;;;4970215;28;19937;-83
2022/12/18 01:02:24;;;;;;;;;;;;;;;;;;4985131;28;19914;-84
2022/12/18 01:04:49;;;;;;;;;;;;;;;;;;4985991;28;19957;-83
2022/12/18 01:07:18;;;;;;;;;;;;;;;;;;4985331;28;19921;-84
2022/12/18 01:09:43;;;;;;;;;;;;;;;;;;5002233;28;20313;-82
2022/12/18 01:12:09;;;;;;;;;;;;;;;;;;5001739;28;20369;-83
2022/12/18 01:14:34;;;;;;;;;;;;;;;;;;5001130;28;19914;-82
2022/12/18 01:17:02;;;;;;;;;;;;;;;;;;4970444;28;20258;-82
2022/12/18 01:19:27;;;;;;;;;;;;;;;;;;5001722;28;19914;-82
2022/12/18 01:21:56;;;;;;;;;;;;;;;;;;5001281;28;19944;-83
2022/12/18 01:24:22;;;;;;;;;;;;;;;;;;5002754;28;19914;-83
2022/12/18 01:26:48;;;;;;;;;;;;;;;;;;4984281;28;19959;-83
2022/12/18 01:29:13;;;;;;;;;;;;;;;;;;4985603;28;20219;-83
2022/12/18 01:31:38;;;;;;;;;;;;;;;;;;4987020;28;19914;-85
2022/12/18 01:34:04;;;;;;;;;;;;;;;;;;5004566;28;20016;-85
2022/12/18 01:36:29;;;;;;;;;;;;;;;;;;5003242;28;19916;-84
2022/12/18 01:38:55;;;;;;;;;;;;;;;;;;5003525;28;19956;-84
2022/12/18 01:41:20;;;;;;;;;;;;;;;;;;5001869;28;19913;-83
2022/12/18 01:43:45;;;;;;;;;;;;;;;;;;5003048;28;20004;-84
2022/12/18 01:46:11;;;;;;;;;;;;;;;;;;5003113;28;19914;-83
2022/12/18 01:48:36;;;;;;;;;;;;;;;;;;5002737;28;19914;-84
2022/12/18 01:51:03;;;;;;;;;;;;;;;;;;5002650;28;19922;-84
2022/12/18 01:53:29;;;;;;;;;;;;;;;;;;5003266;28;19921;-84
2022/12/18 01:55:56;;;;;;;;;;;;;;;;;;5003885;28;19913;-85
2022/12/18 01:58:21;;;;;;;;;;;;;;;;;;5004425;28;19922;-84
2022/12/18 02:00:47;;;;;;;;;;;;;;;;;;5005237;28;20423;-83
2022/12/18 02:03:12;;;;;;;;;;;;;;;;;;5005245;28;19996;-84
2022/12/18 02:05:38;;;;;;;;;;;;;;;;;;5004315;28;19921;-84
2022/12/18 02:08:03;;;;;;;;;;;;;;;;;;5004676;28;20003;-85
2022/12/18 02:10:32;;;;;;;;;;;;;;;;;;5005304;28;19918;-84
2022/12/18 02:12:58;;;;;;;;;;;;;;;;;;5003878;28;19913;-84
2022/12/18 02:15:23;;;;;;;;;;;;;;;;;;5004610;28;19985;-84
2022/12/18 02:17:50;;;;;;;;;;;;;;;;;;4987561;28;19913;-83
2022/12/18 02:20:15;;;;;;;;;;;;;;;;;;4988839;28;20034;-84
2022/12/18 02:22:42;;;;;;;;;;;;;;;;;;4990030;28;19972;-83
2022/12/18 02:25:07;;;;;;;;;;;;;;;;;;5007374;28;19925;-85
2022/12/18 02:27:32;;;;;;;;;;;;;;;;;;5007716;28;19989;-85
2022/12/18 02:29:58;;;;;;;;;;;;;;;;;;4990470;28;19918;-84
2022/12/18 02:32:24;;;;;;;;;;;;;;;;;;5006567;28;19914;-83
2022/12/18 02:34:50;;;;;;;;;;;;;;;;;;5008000;28;19920;-83
2022/12/18 02:37:15;;;;;;;;;;;;;;;;;;4992331;28;20353;-83
2022/12/18 02:39:41;;;;;;;;;;;;;;;;;;4975944;28;19981;-84
2022/12/18 02:42:09;;;;;;;;;;;;;;;;;;5007665;28;19928;-84
2022/12/18 02:44:35;;;;;;;;;;;;;;;;;;5007227;28;19945;-83
2022/12/18 02:47:01;;;;;;;;;;;;;;;;;;4992028;28;19936;-84
2022/12/18 02:49:27;;;;;;;;;;;;;;;;;;5009567;28;19985;-85
2022/12/18 02:51:56;;;;;;;;;;;;;;;;;;5007094;28;20369;-84
2022/12/18 02:54:22;;;;;;;;;;;;;;;;;;5007983;28;19968;-85
2022/12/18 02:56:47;;;;;;;;;;;;;;;;;;5008405;28;19914;-85
2022/12/18 02:59:14;;;;;;;;;;;;;;;;;;5009197;28;19967;-85
2022/12/18 03:01:44;;;;;;;;;;;;;;;;;;4991511;28;19925;-84
2022/12/18 03:04:09;;;;;;;;;;;;;;;;;;4992141;28;19914;-84
2022/12/18 03:06:35;;;;;;;;;;;;;;;;;;4991493;28;19918;-84
2022/12/18 03:09:01;;;;;;;;;;;;;;;;;;4990908;28;19921;-83
2022/12/18 03:14:11;;;;;;;;;;;;;;;;;;5007072;28;19936;-85
2022/12/18 03:16:37;;;;;;;;;;;;;;;;;;4991454;28;19953;-84
2022/12/18 03:19:04;;;;;;;;;;;;;;;;;;4976250;28;19910;-84
2022/12/18 03:21:30;;;;;;;;;;;;;;;;;;4993297;28;19955;-83
2022/12/18 03:23:56;;;;;;;;;;;;;;;;;;4993638;28;19914;-84
2022/12/18 03:26:24;;;;;;;;;;;;;;;;;;5008503;28;20439;-85
2022/12/18 03:28:52;;;;;;;;;;;;;;;;;;5009620;28;19952;-84
2022/12/18 03:31:18;;;;;;;;;;;;;;;;;;5009477;28;19913;-85
2022/12/18 03:33:43;;;;;;;;;;;;;;;;;;5011061;28;19914;-85
2022/12/18 03:36:09;;;;;;;;;;;;;;;;;;4994101;28;19913;-84
2022/12/18 03:38:34;;;;;;;;;;;;;;;;;;4978236;28;19969;-84
2022/12/18 03:41:00;;;;;;;;;;;;;;;;;;5010511;28;19921;-83
2022/12/18 03:43:26;;;;;;;;;;;;;;;;;;5006955;28;20373;-84
2022/12/18 03:45:52;;;;;;;;;;;;;;;;;;4993390;28;19989;-84
2022/12/18 03:48:17;;;;;;;;;;;;;;;;;;5009091;28;19913;-84
2022/12/18 03:50:44;;;;;;;;;;;;;;;;;;4992706;28;19957;-84
2022/12/18 03:53:09;;;;;;;;;;;;;;;;;;5014847;28;19921;-83
2022/12/18 03:55:35;;;;;;;;;;;;;;;;;;4999905;28;19933;-83
2022/12/18 03:58:02;;;;;;;;;;;;;;;;;;4999326;28;19918;-83
2022/12/18 04:00:38;;;;;;;;;;;;;;;;;;4999221;28;19921;-83
2022/12/18 04:03:07;;;;;;;;;;;;;;;;;;5013869;28;19913;-84
2022/12/18 04:05:39;;;;;;;;;;;;;;;;;;5012501;28;19914;-83
2022/12/18 04:08:05;;;;;;;;;;;;;;;;;;5010754;28;19921;-82
2022/12/18 04:10:37;;;;;;;;;;;;;;;;;;5008827;28;19925;-83
2022/12/18 04:13:02;;;;;;;;;;;;;;;;;;4990249;28;19957;-83
2022/12/18 04:15:28;;;;;;;;;;;;;;;;;;5003768;28;19968;-83
2022/12/18 04:17:54;;;;;;;;;;;;;;;;;;5000636;28;19985;-82
2022/12/18 04:20:22;;;;;;;;;;;;;;;;;;4983573;28;19925;-82
2022/12/18 04:22:48;;;;;;;;;;;;;;;;;;5001783;28;19917;-83
2022/12/18 04:25:13;;;;;;;;;;;;;;;;;;5001316;28;19913;-83
2022/12/18 04:27:49;;;;;;;;;;;;;;;;;;5001662;28;20377;-83
2022/12/18 04:30:14;;;;;;;;;;;;;;;;;;4986327;28;19924;-84
2022/12/18 04:32:39;;;;;;;;;;;;;;;;;;4984776;28;19913;-85
2022/12/18 04:35:10;;;;;;;;;;;;;;;;;;5000826;28;19918;-83
2022/12/18 04:37:35;;;;;;;;;;;;;;;;;;5002439;28;19969;-84
2022/12/18 04:40:01;;;;;;;;;;;;;;;;;;5001115;28;19914;-84
2022/12/18 04:42:33;;;;;;;;;;;;;;;;;;4984548;28;19914;-84
2022/12/18 04:44:58;;;;;;;;;;;;;;;;;;5001357;28;19921;-85
2022/12/18 04:47:23;;;;;;;;;;;;;;;;;;5001740;28;20288;-83
2022/12/18 04:49:49;;;;;;;;;;;;;;;;;;5004602;28;20001;-84
2022/12/18 04:52:14;;;;;;;;;;;;;;;;;;4985105;28;19918;-84
2022/12/18 04:54:39;;;;;;;;;;;;;;;;;;4999618;28;19956;-85
2022/12/18 04:57:05;;;;;;;;;;;;;;;;;;4967662;28;20297;-83
2022/12/18 04:59:30;;;;;;;;;;;;;;;;;;5001517;28;19914;-84
2022/12/18 05:01:56;;;;;;;;;;;;;;;;;;5002420;28;19921;-84
2022/12/18 05:04:21;;;;;;;;;;;;;;;;;;4999115;28;19921;-83
2022/12/18 05:06:46;;;;;;;;;;;;;;;;;;4998109;28;20381;-83
2022/12/18 05:09:12;;;;;;;;;;;;;;;;;;4983331;28;20001;-83
2022/12/18 05:11:37;;;;;;;;;;;;;;;;;;4981237;28;20369;-83
2022/12/18 05:14:02;;;;;;;;;;;;;;;;;;4982033;28;19964;-83
2022/12/18 05:16:28;;;;;;;;;;;;;;;;;;4998337;28;19950;-83
2022/12/18 05:18:53;;;;;;;;;;;;;;;;;;4999264;28;20408;-83
2022/12/18 05:21:22;;;;;;;;;;;;;;;;;;4997646;28;19914;-82
2022/12/18 05:23:47;;;;;;;;;;;;;;;;;;4965262;28;19997;-82
2022/12/18 05:26:12;;;;;;;;;;;;;;;;;;4999820;28;20396;-83
2022/12/18 05:28:38;;;;;;;;;;;;;;;;;;4998555;28;20390;-83
2022/12/18 05:31:03;;;;;;;;;;;;;;;;;;4981854;28;19918;-83
2022/12/18 05:33:29;;;;;;;;;;;;;;;;;;4999626;28;19983;-83
2022/12/18 05:35:54;;;;;;;;;;;;;;;;;;5000041;28;20013;-83
2022/12/18 05:38:19;;;;;;;;;;;;;;;;;;4999707;28;20369;-84
2022/12/18 05:40:45;;;;;;;;;;;;;;;;;;4983702;28;19977;-83
2022/12/18 05:43:10;;;;;;;;;;;;;;;;;;4998657;28;19913;-83
2022/12/18 05:45:35;;;;;;;;;;;;;;;;;;4999002;28;19996;-82
2022/12/18 05:48:01;;;;;;;;;;;;;;;;;;4999423;28;20000;-82
2022/12/18 05:50:26;;;;;;;;;;;;;;;;;;4983410;28;19964;-82
2022/12/18 05:52:52;;;;;;;;;;;;;;;;;;4998326;28;19969;-83
2022/12/18 05:55:17;;;;;;;;;;;;;;;;;;5001798;28;19918;-82
2022/12/18 05:57:42;;;;;;;;;;;;;;;;;;5000963;28;19925;-83
2022/12/18 06:00:08;;;;;;;;;;;;;;;;;;5004141;28;19921;-83
2022/12/18 06:02:37;;;;;;;;;;;;;;;;;;5004918;28;19953;-84
2022/12/18 06:05:02;;;;;;;;;;;;;;;;;;5004467;28;19918;-83
2022/12/18 06:07:28;;;;;;;;;;;;;;;;;;5008233;28;19937;-83
2022/12/18 06:09:53;;;;;;;;;;;;;;;;;;5007604;28;19960;-83
2022/12/18 06:12:19;;;;;;;;;;;;;;;;;;5014096;28;19941;-83
2022/12/18 06:14:44;;;;;;;;;;;;;;;;;;5015745;28;19940;-84
2022/12/18 06:17:09;;;;;;;;;;;;;;;;;;5015161;28;19921;-82
2022/12/18 06:19:35;;;;;;;;;;;;;;;;;;5015483;28;19914;-84
2022/12/18 06:22:00;;;;;;;;;;;;;;;;;;5015553;28;19913;-84
2022/12/18 06:24:26;;;;;;;;;;;;;;;;;;5016826;28;19914;-84
2022/12/18 06:26:51;;;;;;;;;;;;;;;;;;5016896;28;19920;-83
2022/12/18 06:29:16;;;;;;;;;;;;;;;;;;5016703;28;20005;-83
2022/12/18 06:31:42;;;;;;;;;;;;;;;;;;5000255;28;19980;-84
2022/12/18 06:34:07;;;;;;;;;;;;;;;;;;5017094;28;19914;-85
2022/12/18 06:36:33;;;;;;;;;;;;;;;;;;5010627;28;20089;-85
2022/12/18 06:38:58;;;;;;;;;;;;;;;;;;5010982;28;20009;-83
2022/12/18 06:41:23;;;;;;;;;;;;;;;;;;4992351;28;19964;-83
2022/12/18 06:43:49;;;;;;;;;;;;;;;;;;5006797;28;19914;-82
2022/12/18 06:46:14;;;;;;;;;;;;;;;;;;5008042;28;20313;-82
2022/12/18 06:48:40;;;;;;;;;;;;;;;;;;4994707;28;19910;-82
2022/12/18 06:51:05;;;;;;;;;;;;;;;;;;5011459;28;19924;-82
2022/12/18 06:53:30;;;;;;;;;;;;;;;;;;5013439;28;19914;-84
2022/12/18 06:55:56;;;;;;;;;;;;;;;;;;4996404;28;19913;-82
2022/12/18 06:58:21;;;;;;;;;;;;;;;;;;5010709;28;20259;-82
2022/12/18 07:00:47;;;;;;;;;;;;;;;;;;5008805;28;20028;-82
2022/12/18 07:03:12;;;;;;;;;;;;;;;;;;5006994;28;19985;-81
2022/12/18 07:05:37;;;;;;;;;;;;;;;;;;5006965;28;19914;-83
2022/12/18 07:08:03;;;;;;;;;;;;;;;;;;4986155;28;19976;-82
2022/12/18 07:10:28;;;;;;;;;;;;;;;;;;5001515;28;20329;-82
2022/12/18 07:12:54;;;;;;;;;;;;;;;;;;5004341;28;19913;-82
2022/12/18 07:15:19;;;;;;;;;;;;;;;;;;5004754;28;20305;-82
2022/12/18 07:17:44;;;;;;;;;;;;;;;;;;5003244;28;19960;-82
2022/12/18 07:20:10;;;;;;;;;;;;;;;;;;5002457;28;19985;-81
2022/12/18 07:22:35;;;;;;;;;;;;;;;;;;5002436;28;19922;-81
2022/12/18 07:25:01;;;;;;;;;;;;;;;;;;5005217;28;19925;-82
2022/12/18 07:27:26;;;;;;;;;;;;;;;;;;4987845;28;19920;-82
2022/12/18 07:29:52;;;;;;;;;;;;;;;;;;5002957;28;19918;-82
2022/12/18 07:32:17;;;;;;;;;;;;;;;;;;5003362;28;19937;-82
2022/12/18 07:34:43;;;;;;;;;;;;;;;;;;4997729;28;19917;-81
2022/12/18 07:37:09;;;;;;;;;;;;;;;;;;4997338;28;19910;-81
2022/12/18 07:39:34;;;;;;;;;;;;;;;;;;5013063;28;19973;-82
2022/12/18 07:44:44;;;;;;;;;;;;;;;;;;5005845;28;19913;-83
2022/12/18 07:47:09;;;;;;;;;;;;;;;;;;5004238;28;19914;-82
2022/12/18 07:49:35;;;;;;;;;;;;;;;;;;4988197;28;19922;-82
2022/12/18 07:52:01;;;;;;;;;;;;;;;;;;4989051;28;19918;-85
2022/12/18 07:54:26;;;;;;;;;;;;;;;;;;4990204;28;20270;-82
2022/12/18 07:56:59;;;;;;;;;;;;;;;;;;5012553;28;19953;-80
2022/12/18 07:59:25;;;;;;;;;;;;;;;;;;5009683;28;20312;-83
2022/12/18 08:01:50;;;;;;;;;;;;;;;;;;5003240;28;20377;-82
2022/12/18 08:04:16;;;;;;;;;;;;;;;;;;5002250;28;19913;-84
2022/12/18 08:06:41;;;;;;;;;;;;;;;;;;4985904;28;19917;-83
2022/12/18 08:09:08;;;;;;;;;;;;;;;;;;4985817;28;19920;-83
2022/12/18 08:11:34;;;;;;;;;;;;;;;;;;4969343;28;19961;-84
2022/12/18 08:13:59;;;;;;;;;;;;;;;;;;5001901;28;19914;-84
2022/12/18 08:16:25;;;;;;;;;;;;;;;;;;5004002;28;19949;-84
2022/12/18 08:18:50;;;;;;;;;;;;;;;;;;5003356;28;19914;-83
2022/12/18 08:21:16;;;;;;;;;;;;;;;;;;5003609;28;19918;-84
2022/12/18 08:23:41;;;;;;;;;;;;;;;;;;4971428;28;19918;-84
2022/12/18 08:26:07;;;;;;;;;;;;;;;;;;5004467;28;20182;-85
2022/12/18 08:28:32;;;;;;;;;;;;;;;;;;4972502;28;19971;-85
2022/12/18 08:30:58;;;;;;;;;;;;;;;;;;4970923;28;19917;-84
2022/12/18 08:33:24;;;;;;;;;;;;;;;;;;5004557;28;19921;-84
2022/12/18 08:35:49;;;;;;;;;;;;;;;;;;4988671;28;19913;-85
2022/12/18 08:38:15;;;;;;;;;;;;;;;;;;5007394;28;19914;-86
2022/12/18 08:40:40;;;;;;;;;;;;;;;;;;5010266;28;19913;-85
2022/12/18 08:45:50;;;;;;;;;;;;;;;;;;5016492;28;19940;-85
2022/12/18 08:48:16;;;;;;;;;;;;;;;;;;5017055;28;19998;-86
2022/12/18 08:50:41;;;;;;;;;;;;;;;;;;5000677;28;19929;-85
2022/12/18 08:53:07;;;;;;;;;;;;;;;;;;5018546;28;19937;-85
2022/12/18 08:55:32;;;;;;;;;;;;;;;;;;4985307;28;19913;-85
2022/12/18 08:57:58;;;;;;;;;;;;;;;;;;5018034;28;19961;-86
2022/12/18 09:00:23;;;;;;;;;;;;;;;;;;5017767;28;19941;-84
2022/12/18 09:02:51;;;;;;;;;;;;;;;;;;5016868;28;19914;-86
2022/12/18 09:05:17;;;;;;;;;;;;;;;;;;5001972;28;19908;-85
2022/12/18 09:07:43;;;;;;;;;;;;;;;;;;5017224;28;19918;-84
2022/12/18 09:10:08;;;;;;;;;;;;;;;;;;5017340;28;19921;-85
2022/12/18 09:12:34;;;;;;;;;;;;;;;;;;4997462;28;20395;-85
2022/12/18 09:14:59;;;;;;;;;;;;;;;;;;5004839;28;20333;-83
2022/12/18 09:17:26;;;;;;;;;;;;;;;;;;5002116;28;19918;-83
2022/12/18 09:19:51;;;;;;;;;;;;;;;;;;5000007;28;20004;-82
2022/12/18 09:22:17;;;;;;;;;;;;;;;;;;4982975;28;20409;-84
2022/12/18 09:24:42;;;;;;;;;;;;;;;;;;5002467;28;19925;-85
2022/12/18 09:27:08;;;;;;;;;;;;;;;;;;5005766;28;19949;-85
2022/12/18 09:29:33;;;;;;;;;;;;;;;;;;4990462;28;19922;-85
2022/12/18 09:31:59;;;;;;;;;;;;;;;;;;4972883;28;19914;-85
2022/12/18 09:34:24;;;;;;;;;;;;;;;;;;4988846;28;20297;-86
2022/12/18 09:36:52;;;;;;;;;;;;;;;;;;4990498;28;19914;-84
2022/12/18 09:39:20;;;;;;;;;;;;;;;;;;5006659;28;19914;-86
2022/12/18 09:41:47;;;;;;;;;;;;;;;;;;4990548;28;19936;-85
2022/12/18 09:44:12;;;;;;;;;;;;;;;;;;4991600;28;19920;-86
2022/12/18 09:46:41;;;;;;;;;;;;;;;;;;5007665;28;19910;-84
2022/12/18 09:49:09;;;;;;;;;;;;;;;;;;5008160;28;19941;-84
2022/12/18 09:51:37;;;;;;;;;;;;;;;;;;4992296;28;20001;-86
2022/12/18 09:54:03;;;;;;;;;;;;;;;;;;5007123;28;19918;-86
2022/12/18 09:56:31;;;;;;;;;;;;;;;;;;4976046;28;20365;-85
2022/12/18 09:58:56;;;;;;;;;;;;;;;;;;5009229;28;19921;-85
2022/12/18 10:01:22;;;;;;;;;;;;;;;;;;4992804;28;19914;-86
2022/12/18 10:03:48;;;;;;;;;;;;;;;;;;5009365;28;19914;-87
2022/12/18 10:06:14;;;;;;;;;;;;;;;;;;5009498;28;19914;-86
2022/12/18 10:08:39;;;;;;;;;;;;;;;;;;5009394;28;19914;-86
2022/12/18 10:11:05;;;;;;;;;;;;;;;;;;5008815;28;19918;-87
2022/12/18 10:13:31;;;;;;;;;;;;;;;;;;5009425;28;19914;-87
2022/12/18 10:15:57;;;;;;;;;;;;;;;;;;5010237;28;19926;-86
2022/12/18 10:18:22;;;;;;;;;;;;;;;;;;4995255;28;19920;-87
2022/12/18 10:20:51;;;;;;;;;;;;;;;;;;5011965;28;19914;-87
2022/12/18 10:23:17;;;;;;;;;;;;;;;;;;4994040;28;20305;-86
2022/12/18 10:25:42;;;;;;;;;;;;;;;;;;5010180;28;20475;-86
2022/12/18 10:28:08;;;;;;;;;;;;;;;;;;5008785;28;19914;-86
2022/12/18 10:30:36;;;;;;;;;;;;;;;;;;4993604;28;19921;-85
2022/12/18 10:33:02;;;;;;;;;;;;;;;;;;4991441;28;19914;-86
2022/12/18 10:35:28;;;;;;;;;;;;;;;;;;5009395;28;19914;-85
2022/12/18 10:37:54;;;;;;;;;;;;;;;;;;5009361;28;19937;-84
2022/12/18 10:40:37;;;;;;;;;;;;;;;;;;5005760;28;20331;-85
2022/12/18 10:43:16;;;;;;;;;;;;;;;;;;4991714;28;19918;-85
2022/12/18 10:45:41;;;;;;;;;;;;;;;;;;4989975;28;19914;-85
2022/12/18 10:48:07;;;;;;;;;;;;;;;;;;4973798;28;19914;-84
2022/12/18 10:50:33;;;;;;;;;;;;;;;;;;5005315;28;19929;-86
2022/12/18 10:52:58;;;;;;;;;;;;;;;;;;5006215;28;19913;-86
2022/12/18 10:55:23;;;;;;;;;;;;;;;;;;5009705;28;19917;-86
2022/12/18 10:57:52;;;;;;;;;;;;;;;;;;5010434;28;19920;-85
2022/12/18 11:00:17;;;;;;;;;;;;;;;;;;5010342;28;20016;-85
2022/12/18 11:02:45;;;;;;;;;;;;;;;;;;5010444;28;19942;-85
2022/12/18 11:05:13;;;;;;;;;;;;;;;;;;4996239;28;19918;-86
2022/12/18 11:07:39;;;;;;;;;;;;;;;;;;4981683;28;20198;-85
2022/12/18 11:10:05;;;;;;;;;;;;;;;;;;4996879;28;19918;-85
2022/12/18 11:12:31;;;;;;;;;;;;;;;;;;5013699;28;19914;-86
2022/12/18 11:14:57;;;;;;;;;;;;;;;;;;5008933;28;19921;-83
2022/12/18 11:17:22;;;;;;;;;;;;;;;;;;4991444;28;19914;-83
2022/12/18 11:19:48;;;;;;;;;;;;;;;;;;4974482;28;20396;-86
2022/12/18 11:22:13;;;;;;;;;;;;;;;;;;4992045;28;19928;-85
2022/12/18 11:24:39;;;;;;;;;;;;;;;;;;4992243;28;20337;-84
2022/12/18 11:27:07;;;;;;;;;;;;;;;;;;5007816;28;19913;-86
2022/12/18 11:29:33;;;;;;;;;;;;;;;;;;4990701;28;19928;-85
2022/12/18 11:32:01;;;;;;;;;;;;;;;;;;4991153;28;19913;-85
2022/12/18 11:34:26;;;;;;;;;;;;;;;;;;5007007;28;20190;-86
2022/12/18 11:36:52;;;;;;;;;;;;;;;;;;5008189;28;19920;-85
2022/12/18 11:39:17;;;;;;;;;;;;;;;;;;5009198;28;19913;-84
2022/12/18 11:44:27;;;;;;;;;;;;;;;;;;5008250;28;19914;-83
2022/12/18 11:46:53;;;;;;;;;;;;;;;;;;4990248;28;20389;-84
2022/12/18 11:49:18;;;;;;;;;;;;;;;;;;5006031;28;19929;-83
2022/12/18 11:51:44;;;;;;;;;;;;;;;;;;4987449;28;20364;-83
2022/12/18 11:54:09;;;;;;;;;;;;;;;;;;4992297;28;19914;-85
2022/12/18 11:56:35;;;;;;;;;;;;;;;;;;5009026;28;19945;-86
2022/12/18 11:59:00;;;;;;;;;;;;;;;;;;4993493;28;19914;-86
2022/12/18 12:01:26;;;;;;;;;;;;;;;;;;5011464;28;19937;-85
2022/12/18 12:03:52;;;;;;;;;;;;;;;;;;4994134;28;19914;-83
2022/12/18 12:06:17;;;;;;;;;;;;;;;;;;5010825;28;19918;-85
2022/12/18 12:08:43;;;;;;;;;;;;;;;;;;5010842;28;19953;-84
2022/12/18 12:11:11;;;;;;;;;;;;;;;;;;5011054;28;19917;-85
2022/12/18 12:13:37;;;;;;;;;;;;;;;;;;4994492;28;19925;-86
2022/12/18 12:16:02;;;;;;;;;;;;;;;;;;4995892;28;19949;-87
2022/12/18 12:18:29;;;;;;;;;;;;;;;;;;5012906;28;19914;-86
2022/12/18 12:20:54;;;;;;;;;;;;;;;;;;5010683;28;19914;-84
2022/12/18 12:23:20;;;;;;;;;;;;;;;;;;5009490;28;19941;-87
2022/12/18 12:25:49;;;;;;;;;;;;;;;;;;5010908;28;19956;-84
2022/12/18 12:28:15;;;;;;;;;;;;;;;;;;5010457;28;19914;-85
2022/12/18 12:30:40;;;;;;;;;;;;;;;;;;5010569;28;19924;-85
2022/12/18 12:33:06;;;;;;;;;;;;;;;;;;5011128;28;19914;-87
2022/12/18 12:35:31;;;;;;;;;;;;;;;;;;5011848;28;19937;-86
2022/12/18 12:37:57;;;;;;;;;;;;;;;;;;4980654;28;19914;-86
2022/12/18 12:40:25;;;;;;;;;;;;;;;;;;5012434;28;19920;-87
2022/12/18 12:45:36;;;;;;;;;;;;;;;;;;4995358;28;19968;-89
2022/12/18 12:48:10;;;;;;;;;;;;;;;;;;4996380;28;19924;-88
2022/12/18 12:50:35;;;;;;;;;;;;;;;;;;4996207;28;19902;-88
2022/12/18 12:53:03;;;;;;;;;;;;;;;;;;4996015;28;19920;-88
2022/12/18 12:55:32;;;;;;;;;;;;;;;;;;4995681;28;19964;-89
2022/12/18 12:57:58;;;;;;;;;;;;;;;;;;4996678;28;19914;-88
2022/12/18 13:00:24;;;;;;;;;;;;;;;;;;5011826;28;19985;-89
2022/12/18 13:02:49;;;;;;;;;;;;;;;;;;5012538;28;19949;-88
2022/12/18 13:05:16;;;;;;;;;;;;;;;;;;4995416;28;19917;-88
2022/12/18 13:07:42;;;;;;;;;;;;;;;;;;4996540;28;19991;-87
2022/12/18 13:10:08;;;;;;;;;;;;;;;;;;5012734;28;19917;-86
2022/12/18 13:15:20;;;;;;;;;;;;;;;;;;4996998;28;19920;-87
2022/12/18 13:17:46;;;;;;;;;;;;;;;;;;5011288;28;19914;-86
2022/12/18 13:20:14;;;;;;;;;;;;;;;;;;5013008;28;19914;-87
2022/12/18 13:22:40;;;;;;;;;;;;;;;;;;5013432;28;19924;-86
2022/12/18 13:25:06;;;;;;;;;;;;;;;;;;5012499;28;19922;-86
2022/12/18 13:27:32;;;;;;;;;;;;;;;;;;4994747;28;19914;-86
2022/12/18 13:29:57;;;;;;;;;;;;;;;;;;5011974;28;19945;-85
2022/12/18 13:32:25;;;;;;;;;;;;;;;;;;5011754;28;19918;-84
2022/12/18 13:34:55;;;;;;;;;;;;;;;;;;5011182;28;19973;-85
2022/12/18 13:37:33;;;;;;;;;;;;;;;;;;5011715;28;19968;-85
2022/12/18 13:39:58;;;;;;;;;;;;;;;;;;5011898;28;19914;-84
2022/12/18 13:45:08;;;;;;;;;;;;;;;;;;5010015;28;19921;-85
2022/12/18 13:47:40;;;;;;;;;;;;;;;;;;5008965;28;19921;-83
2022/12/18 13:50:05;;;;;;;;;;;;;;;;;;4993007;28;19917;-83
2022/12/18 13:52:31;;;;;;;;;;;;;;;;;;4993377;28;19993;-84
2022/12/18 13:54:59;;;;;;;;;;;;;;;;;;5011039;28;20369;-84
2022/12/18 13:57:25;;;;;;;;;;;;;;;;;;4993894;28;19920;-84
2022/12/18 13:59:50;;;;;;;;;;;;;;;;;;5009780;28;20008;-83
2022/12/18 14:02:21;;;;;;;;;;;;;;;;;;5008628;28;19918;-83
2022/12/18 14:04:46;;;;;;;;;;;;;;;;;;4992112;28;19913;-84
2022/12/18 14:07:12;;;;;;;;;;;;;;;;;;5008280;28;19914;-82
2022/12/18 14:09:37;;;;;;;;;;;;;;;;;;5008788;28;19918;-84
2022/12/18 14:14:47;;;;;;;;;;;;;;;;;;4987817;28;20281;-83
2022/12/18 14:17:13;;;;;;;;;;;;;;;;;;5006675;28;19914;-84
2022/12/18 14:19:42;;;;;;;;;;;;;;;;;;4974595;28;19929;-82
2022/12/18 14:22:07;;;;;;;;;;;;;;;;;;4988542;28;19918;-83
2022/12/18 14:24:33;;;;;;;;;;;;;;;;;;5003433;28;19918;-82
2022/12/18 14:26:59;;;;;;;;;;;;;;;;;;5003080;28;19914;-82
2022/12/18 14:29:24;;;;;;;;;;;;;;;;;;5006198;28;20397;-82
2022/12/18 14:31:50;;;;;;;;;;;;;;;;;;5006647;28;20345;-82
2022/12/18 14:34:15;;;;;;;;;;;;;;;;;;5005683;28;20409;-83
2022/12/18 14:36:41;;;;;;;;;;;;;;;;;;5006311;28;19913;-83
2022/12/18 14:39:06;;;;;;;;;;;;;;;;;;4987835;28;19921;-82
2022/12/18 14:41:34;;;;;;;;;;;;;;;;;;4986704;28;19914;-82
2022/12/18 14:44:00;;;;;;;;;;;;;;;;;;4986673;28;19914;-82
2022/12/18 14:46:25;;;;;;;;;;;;;;;;;;5002939;28;19918;-83
2022/12/18 14:48:51;;;;;;;;;;;;;;;;;;5006099;28;19914;-82
2022/12/18 14:51:16;;;;;;;;;;;;;;;;;;4973230;28;19941;-80
2022/12/18 14:53:42;;;;;;;;;;;;;;;;;;4989815;28;19977;-82
2022/12/18 14:56:07;;;;;;;;;;;;;;;;;;5004736;28;19914;-81
2022/12/18 14:58:36;;;;;;;;;;;;;;;;;;5007508;28;19917;-83
2022/12/18 15:01:08;;;;;;;;;;;;;;;;;;4993605;28;19918;-83
2022/12/18 15:03:33;;;;;;;;;;;;;;;;;;5007755;28;19924;-83
2022/12/18 15:05:58;;;;;;;;;;;;;;;;;;5009154;28;19914;-83
2022/12/18 15:08:24;;;;;;;;;;;;;;;;;;5010669;28;19914;-83
2022/12/18 15:10:49;;;;;;;;;;;;;;;;;;5009097;28;20374;-82
2022/12/18 15:13:17;;;;;;;;;;;;;;;;;;5004355;28;20470;-83
2022/12/18 15:15:43;;;;;;;;;;;;;;;;;;5006541;28;19921;-82
2022/12/18 15:18:10;;;;;;;;;;;;;;;;;;4990163;28;19914;-81
2022/12/18 15:20:35;;;;;;;;;;;;;;;;;;5006911;28;19914;-82
2022/12/18 15:23:00;;;;;;;;;;;;;;;;;;5005819;28;19917;-82
2022/12/18 15:25:26;;;;;;;;;;;;;;;;;;5005686;28;19937;-83
2022/12/18 15:27:51;;;;;;;;;;;;;;;;;;5006067;28;19914;-82
2022/12/18 15:30:17;;;;;;;;;;;;;;;;;;5006831;28;19921;-82
2022/12/18 15:32:43;;;;;;;;;;;;;;;;;;5006224;28;20459;-84
2022/12/18 15:35:09;;;;;;;;;;;;;;;;;;5007088;28;19914;-82
2022/12/18 15:37:34;;;;;;;;;;;;;;;;;;5004779;28;19914;-81
2022/12/18 15:39:59;;;;;;;;;;;;;;;;;;5005662;28;20289;-83
2022/12/18 15:45:09;;;;;;;;;;;;;;;;;;5007263;28;19914;-83
2022/12/18 15:47:35;;;;;;;;;;;;;;;;;;5007627;28;19964;-82
2022/12/18 15:50:01;;;;;;;;;;;;;;;;;;5009355;28;19918;-83
2022/12/18 15:52:27;;;;;;;;;;;;;;;;;;5008657;28;20420;-83
2022/12/18 15:57:36;;;;;;;;;;;;;;;;;;5010814;28;19914;-84
2022/12/18 16:00:01;;;;;;;;;;;;;;;;;;5010651;28;19914;-84
2022/12/18 16:02:30;;;;;;;;;;;;;;;;;;5010669;28;19956;-83
2022/12/18 16:04:55;;;;;;;;;;;;;;;;;;4993346;28;19914;-84
2022/12/18 16:07:21;;;;;;;;;;;;;;;;;;5009484;28;19937;-83
2022/12/18 16:09:49;;;;;;;;;;;;;;;;;;5010277;28;19953;-84
2022/12/18 16:12:15;;;;;;;;;;;;;;;;;;5008712;28;19914;-82
2022/12/18 16:14:40;;;;;;;;;;;;;;;;;;5007752;28;20012;-84
2022/12/18 16:17:06;;;;;;;;;;;;;;;;;;5007777;28;19929;-84
2022/12/18 16:19:31;;;;;;;;;;;;;;;;;;4992454;28;19914;-84
2022/12/18 16:21:56;;;;;;;;;;;;;;;;;;5009005;28;19913;-85
2022/12/18 16:24:22;;;;;;;;;;;;;;;;;;5009268;28;20357;-83
2022/12/18 16:26:47;;;;;;;;;;;;;;;;;;5006362;28;19941;-83
2022/12/18 16:29:13;;;;;;;;;;;;;;;;;;5006011;28;19918;-83
2022/12/18 16:31:38;;;;;;;;;;;;;;;;;;5004704;28;19914;-83
2022/12/18 16:34:04;;;;;;;;;;;;;;;;;;5002426;28;19914;-81
2022/12/18 16:36:29;;;;;;;;;;;;;;;;;;5002810;28;19949;-83
2022/12/18 16:38:55;;;;;;;;;;;;;;;;;;5007100;28;19914;-84
2022/12/18 16:41:30;;;;;;;;;;;;;;;;;;4992301;28;19914;-80
2022/12/18 16:43:56;;;;;;;;;;;;;;;;;;5007237;28;20009;-85
2022/12/18 16:46:21;;;;;;;;;;;;;;;;;;5010760;28;19914;-85
2022/12/18 16:48:47;;;;;;;;;;;;;;;;;;4976445;28;19941;-85
2022/12/18 16:51:12;;;;;;;;;;;;;;;;;;5010117;28;19917;-86
2022/12/18 16:53:38;;;;;;;;;;;;;;;;;;4977698;28;19952;-86
2022/12/18 16:56:03;;;;;;;;;;;;;;;;;;5010534;28;19973;-86
2022/12/18 16:58:28;;;;;;;;;;;;;;;;;;4994097;28;19936;-85
2022/12/18 17:00:54;;;;;;;;;;;;;;;;;;5010099;28;20285;-85
2022/12/18 17:03:19;;;;;;;;;;;;;;;;;;4994341;28;20354;-84
2022/12/18 17:05:45;;;;;;;;;;;;;;;;;;5012522;28;20131;-83